Ruskin, Florida
Current Conditions -  °F | °C
As of 7:58 AM on Friday 24 Oct 2014 (Local Time) from KMCF Reporting Station
Clear Clear  
Wind Chill: 60°   Ceiling: Unl
Heat Index: 60°   Visibility: 10mi
Dew Point: 58°   Wind: 8mph
Humidity: 93%   Direction: 60°ENE
Pressure: 29.98"   Gusts: NA
Location:  27.72°N, 82.43°W
Report Text: KMCF 241158Z AUTO 06007KT 10SM CLR 16/14 A2998 RMK AO2 SLP155 7//// T01550144 10176 20154 52011 $
Loading
Personal Weather Stations






























Interactive Weather Map
Tropical Storm Tracking
New forecast layout! Learn more

10-Day Weather Forecast

Advertisements
Track Severe Weather on mobile